sensor_id;sensor_type;location;lat;lon;timestamp;P1;durP1;ratioP1;P2;durP2;ratioP2
55328;SDS011;41205;44.264;19.884;2023-06-14T00:01:44;16.38;;;10.27;;
55328;SDS011;41205;44.264;19.884;2023-06-14T00:04:13;14.88;;;10.75;;
55328;SDS011;41205;44.264;19.884;2023-06-14T00:06:41;13.60;;;11.43;;
55328;SDS011;41205;44.264;19.884;2023-06-14T00:09:10;13.32;;;9.55;;
55328;SDS011;41205;44.264;19.884;2023-06-14T00:11:38;11.88;;;9.13;;
55328;SDS011;41205;44.264;19.884;2023-06-14T00:14:04;11.80;;;9.57;;
55328;SDS011;41205;44.264;19.884;2023-06-14T00:16:30;14.00;;;9.90;;
55328;SDS011;41205;44.264;19.884;2023-06-14T00:18:58;11.07;;;8.60;;
55328;SDS011;41205;44.264;19.884;2023-06-14T00:21:25;12.20;;;10.02;;
55328;SDS011;41205;44.264;19.884;2023-06-14T00:23:53;12.77;;;9.27;;
55328;SDS011;41205;44.264;19.884;2023-06-14T00:26:19;12.77;;;9.98;;
55328;SDS011;41205;44.264;19.884;2023-06-14T00:28:44;10.75;;;9.50;;
55328;SDS011;41205;44.264;19.884;2023-06-14T00:31:10;14.23;;;9.98;;
55328;SDS011;41205;44.264;19.884;2023-06-14T00:33:36;12.60;;;9.50;;
55328;SDS011;41205;44.264;19.884;2023-06-14T00:36:01;10.82;;;9.73;;
55328;SDS011;41205;44.264;19.884;2023-06-14T00:38:27;9.80;;;8.75;;
55328;SDS011;41205;44.264;19.884;2023-06-14T00:40:53;12.07;;;8.15;;
55328;SDS011;41205;44.264;19.884;2023-06-14T00:43:18;11.52;;;9.55;;
55328;SDS011;41205;44.264;19.884;2023-06-14T00:45:44;11.15;;;9.45;;
55328;SDS011;41205;44.264;19.884;2023-06-14T00:48:10;11.65;;;9.00;;
55328;SDS011;41205;44.264;19.884;2023-06-14T00:50:36;11.25;;;9.27;;
55328;SDS011;41205;44.264;19.884;2023-06-14T00:53:03;11.43;;;9.65;;
55328;SDS011;41205;44.264;19.884;2023-06-14T00:55:29;13.07;;;8.98;;
55328;SDS011;41205;44.264;19.884;2023-06-14T00:57:55;15.90;;;9.85;;
55328;SDS011;41205;44.264;19.884;2023-06-14T01:00:21;13.18;;;9.50;;
55328;SDS011;41205;44.264;19.884;2023-06-14T01:02:47;11.85;;;9.75;;
55328;SDS011;41205;44.264;19.884;2023-06-14T01:05:15;12.27;;;8.40;;
55328;SDS011;41205;44.264;19.884;2023-06-14T01:13:15;12.27;;;7.78;;
55328;SDS011;41205;44.264;19.884;2023-06-14T01:15:47;10.93;;;8.90;;
55328;SDS011;41205;44.264;19.884;2023-06-14T01:18:13;10.13;;;8.55;;
55328;SDS011;41205;44.264;19.884;2023-06-14T01:20:45;9.10;;;7.90;;
55328;SDS011;41205;44.264;19.884;2023-06-14T01:23:18;10.75;;;8.63;;
55328;SDS011;41205;44.264;19.884;2023-06-14T01:25:45;14.85;;;8.75;;
55328;SDS011;41205;44.264;19.884;2023-06-14T01:28:12;16.45;;;9.73;;
55328;SDS011;41205;44.264;19.884;2023-06-14T01:30:42;9.68;;;8.68;;
55328;SDS011;41205;44.264;19.884;2023-06-14T01:33:13;10.90;;;9.20;;
55328;SDS011;41205;44.264;19.884;2023-06-14T01:35:50;11.82;;;8.85;;
55328;SDS011;41205;44.264;19.884;2023-06-14T01:38:20;10.98;;;8.20;;
55328;SDS011;41205;44.264;19.884;2023-06-14T01:40:48;9.23;;;8.30;;
55328;SDS011;41205;44.264;19.884;2023-06-14T01:43:16;10.95;;;8.40;;
55328;SDS011;41205;44.264;19.884;2023-06-14T01:45:44;10.48;;;8.48;;
55328;SDS011;41205;44.264;19.884;2023-06-14T01:48:12;9.57;;;7.72;;
55328;SDS011;41205;44.264;19.884;2023-06-14T01:50:38;10.60;;;8.38;;
55328;SDS011;41205;44.264;19.884;2023-06-14T01:53:07;10.70;;;9.23;;
55328;SDS011;41205;44.264;19.884;2023-06-14T01:55:33;9.95;;;8.55;;
55328;SDS011;41205;44.264;19.884;2023-06-14T01:58:02;11.48;;;8.88;;
55328;SDS011;41205;44.264;19.884;2023-06-14T02:00:29;11.20;;;8.68;;
55328;SDS011;41205;44.264;19.884;2023-06-14T02:02:55;10.57;;;8.40;;
55328;SDS011;41205;44.264;19.884;2023-06-14T02:05:21;13.85;;;8.35;;
55328;SDS011;41205;44.264;19.884;2023-06-14T02:07:47;12.35;;;7.80;;
55328;SDS011;41205;44.264;19.884;2023-06-14T02:10:13;10.40;;;8.75;;
55328;SDS011;41205;44.264;19.884;2023-06-14T02:12:40;15.77;;;8.52;;
55328;SDS011;41205;44.264;19.884;2023-06-14T02:15:06;9.70;;;8.68;;
55328;SDS011;41205;44.264;19.884;2023-06-14T02:17:32;10.68;;;8.57;;
55328;SDS011;41205;44.264;19.884;2023-06-14T02:19:58;9.95;;;8.27;;
55328;SDS011;41205;44.264;19.884;2023-06-14T02:22:24;10.68;;;9.13;;
55328;SDS011;41205;44.264;19.884;2023-06-14T02:24:50;11.77;;;8.27;;
55328;SDS011;41205;44.264;19.884;2023-06-14T02:27:16;12.50;;;8.48;;
55328;SDS011;41205;44.264;19.884;2023-06-14T02:29:41;13.60;;;8.30;;
55328;SDS011;41205;44.264;19.884;2023-06-14T02:32:07;11.20;;;8.15;;
55328;SDS011;41205;44.264;19.884;2023-06-14T02:34:34;10.00;;;8.25;;
55328;SDS011;41205;44.264;19.884;2023-06-14T02:37:00;10.70;;;8.30;;
55328;SDS011;41205;44.264;19.884;2023-06-14T02:39:28;11.30;;;7.53;;
55328;SDS011;41205;44.264;19.884;2023-06-14T02:41:54;9.27;;;7.05;;
55328;SDS011;41205;44.264;19.884;2023-06-14T02:44:23;12.48;;;7.63;;
55328;SDS011;41205;44.264;19.884;2023-06-14T02:46:51;10.48;;;7.60;;
55328;SDS011;41205;44.264;19.884;2023-06-14T02:49:17;9.68;;;6.97;;
55328;SDS011;41205;44.264;19.884;2023-06-14T02:51:43;11.45;;;7.57;;
55328;SDS011;41205;44.264;19.884;2023-06-14T02:54:09;9.45;;;7.30;;
55328;SDS011;41205;44.264;19.884;2023-06-14T02:56:35;11.43;;;7.38;;
55328;SDS011;41205;44.264;19.884;2023-06-14T02:59:01;9.07;;;7.28;;
55328;SDS011;41205;44.264;19.884;2023-06-14T03:01:27;8.70;;;6.22;;
55328;SDS011;41205;44.264;19.884;2023-06-14T03:03:59;10.25;;;7.70;;
55328;SDS011;41205;44.264;19.884;2023-06-14T03:06:28;9.82;;;7.25;;
55328;SDS011;41205;44.264;19.884;2023-06-14T03:08:58;10.30;;;7.25;;
55328;SDS011;41205;44.264;19.884;2023-06-14T03:11:29;11.15;;;7.68;;
55328;SDS011;41205;44.264;19.884;2023-06-14T03:13:54;14.40;;;9.77;;
55328;SDS011;41205;44.264;19.884;2023-06-14T03:16:21;11.70;;;9.63;;
55328;SDS011;41205;44.264;19.884;2023-06-14T03:18:50;11.45;;;8.98;;
55328;SDS011;41205;44.264;19.884;2023-06-14T03:21:16;8.10;;;7.07;;
55328;SDS011;41205;44.264;19.884;2023-06-14T03:23:45;8.95;;;8.00;;
55328;SDS011;41205;44.264;19.884;2023-06-14T03:26:12;12.40;;;8.00;;
55328;SDS011;41205;44.264;19.884;2023-06-14T03:28:43;11.73;;;8.85;;
55328;SDS011;41205;44.264;19.884;2023-06-14T03:31:12;12.70;;;10.77;;
55328;SDS011;41205;44.264;19.884;2023-06-14T03:33:38;11.38;;;9.45;;
55328;SDS011;41205;44.264;19.884;2023-06-14T03:36:05;11.30;;;8.45;;
55328;SDS011;41205;44.264;19.884;2023-06-14T03:38:31;9.85;;;8.48;;
55328;SDS011;41205;44.264;19.884;2023-06-14T03:40:58;13.68;;;10.43;;
55328;SDS011;41205;44.264;19.884;2023-06-14T03:43:23;13.93;;;9.93;;
55328;SDS011;41205;44.264;19.884;2023-06-14T03:45:50;11.90;;;9.18;;
55328;SDS011;41205;44.264;19.884;2023-06-14T03:48:15;14.60;;;10.75;;
55328;SDS011;41205;44.264;19.884;2023-06-14T03:50:41;13.55;;;9.75;;
55328;SDS011;41205;44.264;19.884;2023-06-14T03:53:08;12.02;;;9.93;;
55328;SDS011;41205;44.264;19.884;2023-06-14T03:55:34;26.73;;;9.38;;
55328;SDS011;41205;44.264;19.884;2023-06-14T03:58:00;10.55;;;8.48;;
55328;SDS011;41205;44.264;19.884;2023-06-14T04:00:25;14.88;;;8.48;;
55328;SDS011;41205;44.264;19.884;2023-06-14T04:02:51;9.68;;;8.13;;
55328;SDS011;41205;44.264;19.884;2023-06-14T04:05:18;9.88;;;8.10;;
55328;SDS011;41205;44.264;19.884;2023-06-14T04:07:44;11.13;;;8.73;;
55328;SDS011;41205;44.264;19.884;2023-06-14T04:10:14;10.38;;;8.10;;
55328;SDS011;41205;44.264;19.884;2023-06-14T04:12:40;11.82;;;8.68;;
55328;SDS011;41205;44.264;19.884;2023-06-14T04:15:06;15.45;;;8.55;;
55328;SDS011;41205;44.264;19.884;2023-06-14T04:17:33;12.13;;;8.20;;
55328;SDS011;41205;44.264;19.884;2023-06-14T04:20:00;16.33;;;8.88;;
55328;SDS011;41205;44.264;19.884;2023-06-14T04:22:28;11.23;;;7.78;;
55328;SDS011;41205;44.264;19.884;2023-06-14T04:24:55;9.23;;;8.27;;
55328;SDS011;41205;44.264;19.884;2023-06-14T04:27:25;8.82;;;6.93;;
55328;SDS011;41205;44.264;19.884;2023-06-14T04:29:54;10.80;;;8.35;;
55328;SDS011;41205;44.264;19.884;2023-06-14T04:32:24;10.07;;;7.60;;
55328;SDS011;41205;44.264;19.884;2023-06-14T04:34:54;12.65;;;7.10;;
55328;SDS011;41205;44.264;19.884;2023-06-14T04:37:23;7.57;;;6.40;;
55328;SDS011;41205;44.264;19.884;2023-06-14T04:39:51;8.82;;;6.90;;
55328;SDS011;41205;44.264;19.884;2023-06-14T04:42:17;10.70;;;7.13;;
55328;SDS011;41205;44.264;19.884;2023-06-14T04:44:45;11.32;;;7.10;;
55328;SDS011;41205;44.264;19.884;2023-06-14T04:47:12;10.73;;;6.72;;
55328;SDS011;41205;44.264;19.884;2023-06-14T04:49:39;10.52;;;7.00;;
55328;SDS011;41205;44.264;19.884;2023-06-14T04:52:06;11.27;;;7.20;;
55328;SDS011;41205;44.264;19.884;2023-06-14T04:54:32;8.85;;;7.03;;
55328;SDS011;41205;44.264;19.884;2023-06-14T04:56:59;7.80;;;6.50;;
55328;SDS011;41205;44.264;19.884;2023-06-14T04:59:25;13.23;;;7.70;;
55328;SDS011;41205;44.264;19.884;2023-06-14T05:01:51;10.48;;;7.40;;
55328;SDS011;41205;44.264;19.884;2023-06-14T05:04:18;9.70;;;7.47;;
55328;SDS011;41205;44.264;19.884;2023-06-14T05:06:44;8.23;;;6.72;;
55328;SDS011;41205;44.264;19.884;2023-06-14T05:09:11;11.35;;;6.93;;
55328;SDS011;41205;44.264;19.884;2023-06-14T05:11:37;11.18;;;7.70;;
55328;SDS011;41205;44.264;19.884;2023-06-14T05:14:03;7.22;;;6.10;;
55328;SDS011;41205;44.264;19.884;2023-06-14T05:16:28;9.02;;;6.38;;
55328;SDS011;41205;44.264;19.884;2023-06-14T05:18:54;7.95;;;6.05;;
55328;SDS011;41205;44.264;19.884;2023-06-14T05:21:20;7.05;;;5.93;;
55328;SDS011;41205;44.264;19.884;2023-06-14T05:23:46;7.15;;;5.40;;
55328;SDS011;41205;44.264;19.884;2023-06-14T05:26:12;6.85;;;5.57;;
55328;SDS011;41205;44.264;19.884;2023-06-14T05:28:38;8.25;;;6.03;;
55328;SDS011;41205;44.264;19.884;2023-06-14T05:31:04;7.47;;;6.18;;
55328;SDS011;41205;44.264;19.884;2023-06-14T05:33:29;7.63;;;6.78;;
55328;SDS011;41205;44.264;19.884;2023-06-14T05:35:55;13.57;;;6.32;;
55328;SDS011;41205;44.264;19.884;2023-06-14T05:38:21;10.40;;;7.03;;
55328;SDS011;41205;44.264;19.884;2023-06-14T05:40:48;8.82;;;7.57;;
55328;SDS011;41205;44.264;19.884;2023-06-14T05:43:13;9.93;;;7.95;;
55328;SDS011;41205;44.264;19.884;2023-06-14T05:45:39;12.68;;;8.55;;
55328;SDS011;41205;44.264;19.884;2023-06-14T05:48:05;8.45;;;7.20;;
55328;SDS011;41205;44.264;19.884;2023-06-14T05:50:31;7.90;;;7.10;;
55328;SDS011;41205;44.264;19.884;2023-06-14T05:52:56;9.00;;;6.72;;
55328;SDS011;41205;44.264;19.884;2023-06-14T05:55:22;12.07;;;6.45;;
55328;SDS011;41205;44.264;19.884;2023-06-14T05:57:48;10.15;;;6.57;;
55328;SDS011;41205;44.264;19.884;2023-06-14T06:00:14;8.77;;;6.82;;
55328;SDS011;41205;44.264;19.884;2023-06-14T06:02:44;12.65;;;7.05;;
55328;SDS011;41205;44.264;19.884;2023-06-14T06:05:10;8.40;;;7.30;;
55328;SDS011;41205;44.264;19.884;2023-06-14T06:07:40;28.65;;;8.70;;
55328;SDS011;41205;44.264;19.884;2023-06-14T06:10:06;9.10;;;7.22;;
55328;SDS011;41205;44.264;19.884;2023-06-14T06:12:32;10.65;;;7.35;;
55328;SDS011;41205;44.264;19.884;2023-06-14T06:14:58;10.65;;;8.02;;
55328;SDS011;41205;44.264;19.884;2023-06-14T06:17:25;8.23;;;7.43;;
55328;SDS011;41205;44.264;19.884;2023-06-14T06:19:51;9.70;;;8.10;;
55328;SDS011;41205;44.264;19.884;2023-06-14T06:22:17;11.70;;;7.13;;
55328;SDS011;41205;44.264;19.884;2023-06-14T06:24:42;8.73;;;7.00;;
55328;SDS011;41205;44.264;19.884;2023-06-14T06:27:08;12.48;;;7.15;;
55328;SDS011;41205;44.264;19.884;2023-06-14T06:29:34;9.05;;;7.95;;
55328;SDS011;41205;44.264;19.884;2023-06-14T06:32:00;10.25;;;8.65;;
55328;SDS011;41205;44.264;19.884;2023-06-14T06:34:26;11.02;;;9.25;;
55328;SDS011;41205;44.264;19.884;2023-06-14T06:36:52;14.55;;;9.32;;
55328;SDS011;41205;44.264;19.884;2023-06-14T06:39:18;11.23;;;9.50;;
55328;SDS011;41205;44.264;19.884;2023-06-14T06:41:44;12.60;;;9.18;;
55328;SDS011;41205;44.264;19.884;2023-06-14T06:44:10;10.48;;;7.75;;
55328;SDS011;41205;44.264;19.884;2023-06-14T06:46:35;11.18;;;9.05;;
55328;SDS011;41205;44.264;19.884;2023-06-14T06:49:05;14.63;;;9.07;;
55328;SDS011;41205;44.264;19.884;2023-06-14T06:51:31;18.73;;;10.68;;
55328;SDS011;41205;44.264;19.884;2023-06-14T06:53:57;15.38;;;10.77;;
55328;SDS011;41205;44.264;19.884;2023-06-14T06:56:23;16.70;;;9.00;;
55328;SDS011;41205;44.264;19.884;2023-06-14T06:58:49;18.23;;;9.82;;
55328;SDS011;41205;44.264;19.884;2023-06-14T07:01:16;12.07;;;8.57;;
55328;SDS011;41205;44.264;19.884;2023-06-14T07:03:43;8.88;;;7.32;;
55328;SDS011;41205;44.264;19.884;2023-06-14T07:06:09;18.52;;;8.38;;
55328;SDS011;41205;44.264;19.884;2023-06-14T07:08:35;12.10;;;8.52;;
55328;SDS011;41205;44.264;19.884;2023-06-14T07:11:03;19.13;;;8.07;;
55328;SDS011;41205;44.264;19.884;2023-06-14T07:13:30;11.43;;;8.70;;
55328;SDS011;41205;44.264;19.884;2023-06-14T07:15:57;13.75;;;8.63;;
55328;SDS011;41205;44.264;19.884;2023-06-14T07:18:24;11.45;;;8.68;;
55328;SDS011;41205;44.264;19.884;2023-06-14T07:20:49;10.43;;;8.07;;
55328;SDS011;41205;44.264;19.884;2023-06-14T07:23:15;9.77;;;8.75;;
55328;SDS011;41205;44.264;19.884;2023-06-14T07:25:41;9.25;;;8.45;;
55328;SDS011;41205;44.264;19.884;2023-06-14T07:28:07;11.57;;;7.63;;
55328;SDS011;41205;44.264;19.884;2023-06-14T07:30:32;9.80;;;8.82;;
55328;SDS011;41205;44.264;19.884;2023-06-14T07:32:58;10.80;;;9.57;;
55328;SDS011;41205;44.264;19.884;2023-06-14T07:35:24;12.88;;;9.63;;
55328;SDS011;41205;44.264;19.884;2023-06-14T07:37:49;12.73;;;10.05;;
55328;SDS011;41205;44.264;19.884;2023-06-14T07:40:15;8.80;;;7.95;;
55328;SDS011;41205;44.264;19.884;2023-06-14T07:42:41;9.23;;;7.00;;
55328;SDS011;41205;44.264;19.884;2023-06-14T07:45:07;8.68;;;7.50;;
55328;SDS011;41205;44.264;19.884;2023-06-14T07:47:33;9.93;;;7.40;;
55328;SDS011;41205;44.264;19.884;2023-06-14T07:49:59;7.70;;;6.90;;
55328;SDS011;41205;44.264;19.884;2023-06-14T07:52:25;8.52;;;7.57;;
55328;SDS011;41205;44.264;19.884;2023-06-14T07:54:50;7.07;;;6.47;;
55328;SDS011;41205;44.264;19.884;2023-06-14T07:57:16;11.38;;;6.97;;
55328;SDS011;41205;44.264;19.884;2023-06-14T07:59:45;7.85;;;7.05;;
55328;SDS011;41205;44.264;19.884;2023-06-14T08:02:11;9.25;;;7.32;;
55328;SDS011;41205;44.264;19.884;2023-06-14T08:04:38;9.63;;;7.50;;
55328;SDS011;41205;44.264;19.884;2023-06-14T08:07:04;7.53;;;6.78;;
55328;SDS011;41205;44.264;19.884;2023-06-14T08:09:30;11.88;;;7.28;;
55328;SDS011;41205;44.264;19.884;2023-06-14T08:11:56;9.23;;;6.75;;
55328;SDS011;41205;44.264;19.884;2023-06-14T08:14:22;7.65;;;6.75;;
55328;SDS011;41205;44.264;19.884;2023-06-14T08:16:48;11.05;;;6.25;;
55328;SDS011;41205;44.264;19.884;2023-06-14T08:19:14;7.38;;;5.38;;
55328;SDS011;41205;44.264;19.884;2023-06-14T08:21:41;7.03;;;4.88;;
55328;SDS011;41205;44.264;19.884;2023-06-14T08:24:10;7.05;;;5.15;;
55328;SDS011;41205;44.264;19.884;2023-06-14T08:26:37;9.63;;;4.72;;
55328;SDS011;41205;44.264;19.884;2023-06-14T08:29:04;7.32;;;4.90;;
55328;SDS011;41205;44.264;19.884;2023-06-14T08:31:32;6.78;;;4.65;;
55328;SDS011;41205;44.264;19.884;2023-06-14T08:33:58;6.22;;;4.20;;
55328;SDS011;41205;44.264;19.884;2023-06-14T08:36:23;8.05;;;4.40;;
55328;SDS011;41205;44.264;19.884;2023-06-14T08:38:49;7.03;;;4.15;;
55328;SDS011;41205;44.264;19.884;2023-06-14T08:41:19;8.65;;;4.47;;
55328;SDS011;41205;44.264;19.884;2023-06-14T08:43:47;4.97;;;4.43;;
55328;SDS011;41205;44.264;19.884;2023-06-14T08:46:12;8.23;;;4.95;;
55328;SDS011;41205;44.264;19.884;2023-06-14T08:48:41;5.53;;;3.80;;
55328;SDS011;41205;44.264;19.884;2023-06-14T08:51:08;7.03;;;3.90;;
55328;SDS011;41205;44.264;19.884;2023-06-14T08:53:36;5.82;;;4.03;;
55328;SDS011;41205;44.264;19.884;2023-06-14T08:56:07;4.97;;;3.85;;
55328;SDS011;41205;44.264;19.884;2023-06-14T08:58:40;5.75;;;4.18;;
55328;SDS011;41205;44.264;19.884;2023-06-14T09:01:10;8.13;;;3.85;;
55328;SDS011;41205;44.264;19.884;2023-06-14T09:03:41;6.32;;;4.10;;
55328;SDS011;41205;44.264;19.884;2023-06-14T09:06:08;5.30;;;3.50;;
55328;SDS011;41205;44.264;19.884;2023-06-14T09:08:38;6.85;;;4.72;;
55328;SDS011;41205;44.264;19.884;2023-06-14T09:11:08;5.18;;;3.90;;
55328;SDS011;41205;44.264;19.884;2023-06-14T09:13:38;8.27;;;4.32;;
55328;SDS011;41205;44.264;19.884;2023-06-14T09:16:04;5.68;;;4.10;;
55328;SDS011;41205;44.264;19.884;2023-06-14T09:18:34;6.68;;;4.72;;
55328;SDS011;41205;44.264;19.884;2023-06-14T09:21:12;6.13;;;3.72;;
55328;SDS011;41205;44.264;19.884;2023-06-14T09:23:43;5.28;;;3.90;;
55328;SDS011;41205;44.264;19.884;2023-06-14T09:26:11;6.80;;;4.25;;
55328;SDS011;41205;44.264;19.884;2023-06-14T09:28:42;4.65;;;3.90;;
55328;SDS011;41205;44.264;19.884;2023-06-14T09:31:18;5.20;;;4.20;;
55328;SDS011;41205;44.264;19.884;2023-06-14T09:33:45;7.57;;;3.67;;
55328;SDS011;41205;44.264;19.884;2023-06-14T09:36:18;7.53;;;3.92;;
55328;SDS011;41205;44.264;19.884;2023-06-14T09:38:51;5.70;;;4.03;;
55328;SDS011;41205;44.264;19.884;2023-06-14T09:41:26;6.80;;;4.40;;
55328;SDS011;41205;44.264;19.884;2023-06-14T09:44:03;4.57;;;4.03;;
55328;SDS011;41205;44.264;19.884;2023-06-14T09:46:30;4.78;;;4.28;;
55328;SDS011;41205;44.264;19.884;2023-06-14T09:48:59;8.95;;;4.35;;
55328;SDS011;41205;44.264;19.884;2023-06-14T09:51:25;5.78;;;4.13;;
55328;SDS011;41205;44.264;19.884;2023-06-14T09:53:52;6.10;;;4.63;;
55328;SDS011;41205;44.264;19.884;2023-06-14T09:56:25;5.82;;;4.13;;
55328;SDS011;41205;44.264;19.884;2023-06-14T09:59:09;6.88;;;5.53;;
55328;SDS011;41205;44.264;19.884;2023-06-14T10:01:41;5.57;;;4.00;;
55328;SDS011;41205;44.264;19.884;2023-06-14T10:04:07;8.20;;;4.28;;
55328;SDS011;41205;44.264;19.884;2023-06-14T10:06:45;7.95;;;4.28;;
55328;SDS011;41205;44.264;19.884;2023-06-14T10:09:11;5.43;;;4.30;;
55328;SDS011;41205;44.264;19.884;2023-06-14T10:11:37;5.85;;;4.15;;
55328;SDS011;41205;44.264;19.884;2023-06-14T10:14:09;6.55;;;4.57;;
55328;SDS011;41205;44.264;19.884;2023-06-14T10:19:49;5.18;;;4.20;;
55328;SDS011;41205;44.264;19.884;2023-06-14T10:22:26;7.90;;;4.50;;
55328;SDS011;41205;44.264;19.884;2023-06-14T10:24:56;7.10;;;5.30;;
55328;SDS011;41205;44.264;19.884;2023-06-14T10:27:22;10.10;;;4.60;;
55328;SDS011;41205;44.264;19.884;2023-06-14T10:32:18;6.40;;;4.13;;
55328;SDS011;41205;44.264;19.884;2023-06-14T10:34:45;9.98;;;4.93;;
55328;SDS011;41205;44.264;19.884;2023-06-14T10:37:20;6.93;;;6.22;;
55328;SDS011;41205;44.264;19.884;2023-06-14T10:39:46;13.05;;;10.90;;
55328;SDS011;41205;44.264;19.884;2023-06-14T10:42:12;7.35;;;4.35;;
55328;SDS011;41205;44.264;19.884;2023-06-14T10:44:39;6.32;;;4.50;;
55328;SDS011;41205;44.264;19.884;2023-06-14T10:47:27;6.70;;;4.45;;
55328;SDS011;41205;44.264;19.884;2023-06-14T10:50:04;7.93;;;4.68;;
55328;SDS011;41205;44.264;19.884;2023-06-14T10:52:35;6.50;;;4.47;;
55328;SDS011;41205;44.264;19.884;2023-06-14T11:00:11;6.05;;;4.63;;
55328;SDS011;41205;44.264;19.884;2023-06-14T11:05:55;9.00;;;3.97;;
55328;SDS011;41205;44.264;19.884;2023-06-14T11:11:25;7.13;;;5.32;;
55328;SDS011;41205;44.264;19.884;2023-06-14T11:13:58;7.85;;;4.85;;
55328;SDS011;41205;44.264;19.884;2023-06-14T11:16:26;5.40;;;4.35;;
55328;SDS011;41205;44.264;19.884;2023-06-14T11:18:54;7.22;;;4.72;;
55328;SDS011;41205;44.264;19.884;2023-06-14T11:21:20;10.07;;;4.90;;
55328;SDS011;41205;44.264;19.884;2023-06-14T11:23:52;8.25;;;5.00;;
55328;SDS011;41205;44.264;19.884;2023-06-14T11:26:26;7.13;;;4.97;;
55328;SDS011;41205;44.264;19.884;2023-06-14T11:28:56;5.93;;;4.68;;
55328;SDS011;41205;44.264;19.884;2023-06-14T11:31:24;6.07;;;4.78;;
55328;SDS011;41205;44.264;19.884;2023-06-14T11:33:50;16.15;;;6.18;;
55328;SDS011;41205;44.264;19.884;2023-06-14T11:36:18;7.93;;;4.78;;
55328;SDS011;41205;44.264;19.884;2023-06-14T11:38:44;5.13;;;4.00;;
55328;SDS011;41205;44.264;19.884;2023-06-14T11:41:09;6.63;;;4.28;;
55328;SDS011;41205;44.264;19.884;2023-06-14T11:43:35;5.78;;;4.13;;
55328;SDS011;41205;44.264;19.884;2023-06-14T11:46:02;6.80;;;4.03;;
55328;SDS011;41205;44.264;19.884;2023-06-14T11:48:40;4.90;;;3.92;;
55328;SDS011;41205;44.264;19.884;2023-06-14T11:51:07;7.93;;;5.10;;
55328;SDS011;41205;44.264;19.884;2023-06-14T11:53:33;6.38;;;4.40;;
55328;SDS011;41205;44.264;19.884;2023-06-14T11:55:59;5.25;;;4.00;;
55328;SDS011;41205;44.264;19.884;2023-06-14T11:58:25;7.78;;;4.90;;
55328;SDS011;41205;44.264;19.884;2023-06-14T12:00:52;7.85;;;4.78;;
55328;SDS011;41205;44.264;19.884;2023-06-14T12:03:28;5.07;;;4.07;;
55328;SDS011;41205;44.264;19.884;2023-06-14T12:06:09;8.57;;;5.22;;
55328;SDS011;41205;44.264;19.884;2023-06-14T12:08:35;8.68;;;4.30;;
55328;SDS011;41205;44.264;19.884;2023-06-14T12:11:11;9.98;;;4.80;;
55328;SDS011;41205;44.264;19.884;2023-06-14T12:13:41;9.45;;;4.88;;
55328;SDS011;41205;44.264;19.884;2023-06-14T12:16:08;6.03;;;4.80;;
55328;SDS011;41205;44.264;19.884;2023-06-14T12:18:35;5.43;;;4.53;;
55328;SDS011;41205;44.264;19.884;2023-06-14T12:21:05;9.05;;;4.60;;
55328;SDS011;41205;44.264;19.884;2023-06-14T12:23:47;6.55;;;4.22;;
55328;SDS011;41205;44.264;19.884;2023-06-14T12:28:41;8.57;;;4.78;;
55328;SDS011;41205;44.264;19.884;2023-06-14T12:31:11;9.63;;;4.63;;
55328;SDS011;41205;44.264;19.884;2023-06-14T12:33:38;5.03;;;3.63;;
55328;SDS011;41205;44.264;19.884;2023-06-14T12:36:04;10.52;;;4.40;;
55328;SDS011;41205;44.264;19.884;2023-06-14T12:38:32;9.00;;;4.72;;
55328;SDS011;41205;44.264;19.884;2023-06-14T12:40:58;8.13;;;4.65;;
55328;SDS011;41205;44.264;19.884;2023-06-14T12:43:24;8.27;;;4.43;;
55328;SDS011;41205;44.264;19.884;2023-06-14T12:45:49;6.50;;;4.07;;
55328;SDS011;41205;44.264;19.884;2023-06-14T12:48:15;6.00;;;4.25;;
55328;SDS011;41205;44.264;19.884;2023-06-14T12:50:41;6.65;;;4.20;;
55328;SDS011;41205;44.264;19.884;2023-06-14T12:53:07;6.65;;;4.82;;
55328;SDS011;41205;44.264;19.884;2023-06-14T12:55:33;6.82;;;4.45;;
55328;SDS011;41205;44.264;19.884;2023-06-14T12:57:58;7.15;;;4.68;;
55328;SDS011;41205;44.264;19.884;2023-06-14T13:00:24;6.93;;;5.00;;
55328;SDS011;41205;44.264;19.884;2023-06-14T13:02:55;6.25;;;4.38;;
55328;SDS011;41205;44.264;19.884;2023-06-14T13:05:21;6.90;;;4.70;;
55328;SDS011;41205;44.264;19.884;2023-06-14T13:07:47;6.30;;;4.95;;
55328;SDS011;41205;44.264;19.884;2023-06-14T13:10:13;7.15;;;4.95;;
55328;SDS011;41205;44.264;19.884;2023-06-14T13:12:38;6.20;;;4.95;;
55328;SDS011;41205;44.264;19.884;2023-06-14T13:15:05;6.55;;;4.57;;
55328;SDS011;41205;44.264;19.884;2023-06-14T13:17:33;10.05;;;5.80;;
55328;SDS011;41205;44.264;19.884;2023-06-14T13:20:03;8.68;;;5.22;;
55328;SDS011;41205;44.264;19.884;2023-06-14T13:22:30;7.60;;;6.68;;
55328;SDS011;41205;44.264;19.884;2023-06-14T13:24:56;7.72;;;4.85;;
55328;SDS011;41205;44.264;19.884;2023-06-14T13:27:21;5.65;;;4.47;;
55328;SDS011;41205;44.264;19.884;2023-06-14T13:29:48;10.55;;;5.63;;
55328;SDS011;41205;44.264;19.884;2023-06-14T13:32:14;6.38;;;4.70;;
55328;SDS011;41205;44.264;19.884;2023-06-14T13:34:40;9.23;;;5.18;;
55328;SDS011;41205;44.264;19.884;2023-06-14T13:37:05;7.68;;;4.70;;
55328;SDS011;41205;44.264;19.884;2023-06-14T13:39:31;9.93;;;4.60;;
55328;SDS011;41205;44.264;19.884;2023-06-14T13:41:57;8.70;;;5.32;;
55328;SDS011;41205;44.264;19.884;2023-06-14T13:44:22;9.40;;;5.00;;
55328;SDS011;41205;44.264;19.884;2023-06-14T13:46:49;6.57;;;4.80;;
55328;SDS011;41205;44.264;19.884;2023-06-14T13:49:15;6.97;;;5.25;;
55328;SDS011;41205;44.264;19.884;2023-06-14T13:51:41;8.50;;;5.07;;
55328;SDS011;41205;44.264;19.884;2023-06-14T13:54:08;6.85;;;4.53;;
55328;SDS011;41205;44.264;19.884;2023-06-14T13:56:33;6.30;;;4.53;;
55328;SDS011;41205;44.264;19.884;2023-06-14T13:58:59;5.35;;;4.05;;
55328;SDS011;41205;44.264;19.884;2023-06-14T14:01:25;5.57;;;4.75;;
55328;SDS011;41205;44.264;19.884;2023-06-14T14:03:51;6.10;;;4.32;;
55328;SDS011;41205;44.264;19.884;2023-06-14T14:06:17;10.57;;;5.72;;
55328;SDS011;41205;44.264;19.884;2023-06-14T14:08:43;5.60;;;4.53;;
55328;SDS011;41205;44.264;19.884;2023-06-14T14:11:09;5.97;;;4.68;;
55328;SDS011;41205;44.264;19.884;2023-06-14T14:13:35;8.07;;;5.20;;
55328;SDS011;41205;44.264;19.884;2023-06-14T14:16:02;6.57;;;4.95;;
55328;SDS011;41205;44.264;19.884;2023-06-14T14:18:28;10.07;;;4.95;;
55328;SDS011;41205;44.264;19.884;2023-06-14T14:20:54;9.32;;;5.75;;
55328;SDS011;41205;44.264;19.884;2023-06-14T14:23:21;8.57;;;5.35;;
55328;SDS011;41205;44.264;19.884;2023-06-14T14:25:47;10.55;;;5.82;;
55328;SDS011;41205;44.264;19.884;2023-06-14T14:28:13;7.65;;;5.20;;
55328;SDS011;41205;44.264;19.884;2023-06-14T14:30:41;7.93;;;5.53;;
55328;SDS011;41205;44.264;19.884;2023-06-14T14:33:07;15.90;;;6.13;;
55328;SDS011;41205;44.264;19.884;2023-06-14T14:35:33;14.55;;;10.95;;
55328;SDS011;41205;44.264;19.884;2023-06-14T14:37:59;15.75;;;11.13;;
55328;SDS011;41205;44.264;19.884;2023-06-14T14:40:24;17.02;;;15.27;;
55328;SDS011;41205;44.264;19.884;2023-06-14T14:42:50;18.42;;;14.95;;
55328;SDS011;41205;44.264;19.884;2023-06-14T14:45:16;19.63;;;13.52;;
55328;SDS011;41205;44.264;19.884;2023-06-14T14:47:42;16.02;;;13.80;;
55328;SDS011;41205;44.264;19.884;2023-06-14T14:50:08;16.60;;;10.65;;
55328;SDS011;41205;44.264;19.884;2023-06-14T14:52:34;11.80;;;8.20;;
55328;SDS011;41205;44.264;19.884;2023-06-14T14:55:00;15.32;;;10.40;;